Time;durP1;ratioP1;P1;durP2;ratioP2;P2;SDS_P1;SDS_P2;PMS_P1;PMS_P2;Temp;Humidity;BMP_temperature;BMP_pressure;BME280_temperature;BME280_humidity;BME280_pressure;Samples;Min_cycle;Max_cycle;Signal;HPM_P1;HPM_P2
2022/04/19 00:00:39;;;;;;;9.27;8.48;;;;;;;-148.33;100.00;56587.81;5028386;28;20029;-60
2022/04/19 00:03:07;;;;;;;9.25;8.35;;;;;;;-148.33;100.00;56587.81;5029242;28;20477;-60
2022/04/19 00:05:33;;;;;;;10.07;9.18;;;;;;;-148.33;100.00;56587.81;5028062;28;20033;-58
2022/04/19 00:08:03;;;;;;;10.73;9.68;;;;;;;-148.33;100.00;56587.81;5028882;28;20025;-58
2022/04/19 00:10:29;;;;;;;10.00;8.85;;;;;;;-148.33;100.00;56587.81;5028831;28;20112;-59
2022/04/19 00:12:59;;;;;;;10.50;9.40;;;;;;;-148.33;100.00;56587.81;5028282;28;20540;-58
2022/04/19 00:15:27;;;;;;;9.65;8.65;;;;;;;-148.33;100.00;56587.81;5028551;28;20504;-59
2022/04/19 00:17:54;;;;;;;10.45;9.32;;;;;;;-148.33;100.00;56587.81;5044077;28;20033;-59
2022/04/19 00:20:21;;;;;;;10.60;9.57;;;;;;;-148.33;100.00;56587.81;5048601;28;20029;-59
2022/04/19 00:22:47;;;;;;;12.57;9.25;;;;;;;-148.33;100.00;56587.81;5048345;28;20028;-59
2022/04/19 00:25:12;;;;;;;12.02;9.80;;;;;;;-148.33;100.00;56587.81;5048527;28;20028;-59
2022/04/19 00:27:37;;;;;;;9.95;9.05;;;;;;;-148.33;100.00;56587.81;5048423;28;20485;-58
2022/04/19 00:30:03;;;;;;;10.35;9.25;;;;;;;-148.33;100.00;56587.81;5048581;28;20369;-59
2022/04/19 00:32:28;;;;;;;10.40;9.40;;;;;;;-148.33;100.00;56587.81;5047915;28;20103;-58
2022/04/19 00:34:53;;;;;;;10.57;9.18;;;;;;;-148.33;100.00;56587.81;5048887;28;20128;-58
2022/04/19 00:37:19;;;;;;;9.27;8.30;;;;;;;-148.33;100.00;56587.81;5044247;28;20032;-58
2022/04/19 00:39:45;;;;;;;11.27;9.40;;;;;;;-148.33;100.00;56587.81;5048350;28;20496;-57
2022/04/19 00:42:10;;;;;;;11.10;9.10;;;;;;;-148.33;100.00;56587.81;5048868;28;20332;-58
2022/04/19 00:44:39;;;;;;;10.15;9.07;;;;;;;-148.33;100.00;56587.81;5046725;28;20449;-58
2022/04/19 00:47:09;;;;;;;10.63;9.63;;;;;;;-148.33;100.00;56587.81;5048676;28;20057;-58
2022/04/19 00:49:40;;;;;;;11.40;10.30;;;;;;;-148.33;100.00;56587.81;5047840;28;20045;-58
2022/04/19 00:52:07;;;;;;;10.93;9.80;;;;;;;-148.33;100.00;56587.81;5047685;28;20167;-58
2022/04/19 00:54:32;;;;;;;9.60;8.80;;;;;;;-148.33;100.00;56587.81;5048278;28;20405;-57
2022/04/19 00:56:58;;;;;;;12.20;9.98;;;;;;;-148.33;100.00;56587.81;5047799;28;20024;-58
2022/04/19 00:59:25;;;;;;;11.20;10.07;;;;;;;-148.33;100.00;56587.81;5050362;28;20033;-58
2022/04/19 01:01:50;;;;;;;10.75;9.60;;;;;;;-148.33;100.00;56587.81;5043492;28;20029;-58
2022/04/19 01:04:16;;;;;;;12.25;10.18;;;;;;;-148.33;100.00;56587.81;5032417;28;20028;-58
2022/04/19 01:06:42;;;;;;;11.38;10.27;;;;;;;-148.33;100.00;56587.81;5032371;28;20029;-59
2022/04/19 01:09:07;;;;;;;11.15;9.88;;;;;;;-148.33;100.00;56587.81;5031744;28;20028;-58
2022/04/19 01:14:19;;;;;;;10.52;9.50;;;;;;;-148.33;100.00;56587.81;5032110;28;20048;-58
2022/04/19 01:16:45;;;;;;;9.95;9.02;;;;;;;-148.33;100.00;56587.81;5032242;28;20033;-58
2022/04/19 01:19:15;;;;;;;10.05;9.05;;;;;;;-148.33;100.00;56587.81;5032573;28;20032;-57
2022/04/19 01:21:50;;;;;;;10.32;9.43;;;;;;;-148.33;100.00;56587.81;5032156;28;20025;-58
2022/04/19 01:24:18;;;;;;;11.55;10.45;;;;;;;-148.33;100.00;56587.81;5031547;28;20033;-58
2022/04/19 01:26:43;;;;;;;10.75;9.65;;;;;;;-148.33;100.00;56587.81;5031838;28;20112;-59
2022/04/19 01:29:10;;;;;;;10.48;9.45;;;;;;;-148.33;100.00;56587.81;5032096;28;20164;-58
2022/04/19 01:31:37;;;;;;;12.80;9.93;;;;;;;-148.33;100.00;56587.81;5031319;28;20140;-57
2022/04/19 01:34:03;;;;;;;10.63;9.63;;;;;;;-148.33;100.00;56587.81;5032371;28;20104;-58
2022/04/19 01:36:28;;;;;;;10.35;9.35;;;;;;;-148.33;100.00;56587.81;5031539;28;20140;-57
2022/04/19 01:38:54;;;;;;;14.32;10.07;;;;;;;-148.33;100.00;56587.81;5031023;28;20033;-59
2022/04/19 01:41:19;;;;;;;11.18;9.80;;;;;;;-148.33;100.00;56587.81;5031304;28;20037;-58
2022/04/19 01:43:44;;;;;;;12.00;10.57;;;;;;;-148.33;100.00;56587.81;5031660;28;20037;-59
2022/04/19 01:46:11;;;;;;;10.80;9.80;;;;;;;-148.33;100.00;56587.81;5030925;28;20356;-58
2022/04/19 01:48:36;;;;;;;10.40;9.50;;;;;;;-148.33;100.00;56587.81;5031742;28;20131;-58
2022/04/19 01:51:02;;;;;;;10.90;9.77;;;;;;;-148.33;100.00;56587.81;5040862;28;20546;-60
2022/04/19 01:53:28;;;;;;;9.55;8.63;;;;;;;-148.33;100.00;56587.81;5051370;28;20477;-59
2022/04/19 01:55:53;;;;;;;9.40;8.23;;;;;;;-148.33;100.00;56587.81;5051332;28;20043;-58
2022/04/19 01:58:19;;;;;;;9.55;8.50;;;;;;;-148.33;100.00;56587.81;5050907;28;20462;-60
2022/04/19 02:00:44;;;;;;;10.68;9.57;;;;;;;-148.33;100.00;56587.81;5051230;28;20025;-59
2022/04/19 02:03:09;;;;;;;10.38;9.10;;;;;;;-148.33;100.00;56587.81;5051405;28;20112;-59
2022/04/19 02:05:35;;;;;;;10.43;9.50;;;;;;;-148.33;100.00;56587.81;5051117;28;20499;-59
2022/04/19 02:08:00;;;;;;;10.68;9.68;;;;;;;-148.33;100.00;56587.81;5050909;28;20104;-59
2022/04/19 02:10:25;;;;;;;11.05;9.95;;;;;;;-148.33;100.00;56587.81;5049291;28;20373;-57
2022/04/19 02:12:51;;;;;;;11.20;10.00;;;;;;;-148.33;100.00;56587.81;5050821;28;20076;-58
2022/04/19 02:15:18;;;;;;;12.13;10.13;;;;;;;-148.33;100.00;56587.81;5051276;28;20551;-57
2022/04/19 02:17:45;;;;;;;10.45;9.45;;;;;;;-148.33;100.00;56587.81;5050593;28;20037;-59
2022/04/19 02:20:11;;;;;;;10.65;9.55;;;;;;;-148.33;100.00;56587.81;5051109;28;20056;-60
2022/04/19 02:22:39;;;;;;;11.63;9.93;;;;;;;-148.33;100.00;56587.81;5050643;28;20040;-58
2022/04/19 02:25:05;;;;;;;12.27;11.05;;;;;;;-148.33;100.00;56587.81;5050759;28;20021;-60
2022/04/19 02:27:31;;;;;;;10.85;9.82;;;;;;;-148.33;100.00;56587.81;5050622;28;20025;-59
2022/04/19 02:29:57;;;;;;;11.90;10.05;;;;;;;-148.33;100.00;56587.81;5050343;28;20246;-58
2022/04/19 02:32:23;;;;;;;11.75;10.63;;;;;;;-148.33;100.00;56587.81;5050319;28;20072;-59
2022/04/19 02:34:52;;;;;;;11.68;10.68;;;;;;;-148.33;100.00;56587.81;5050483;28;20031;-60
2022/04/19 02:37:18;;;;;;;11.57;10.48;;;;;;;-148.33;100.00;56587.81;5050381;28;20040;-60
2022/04/19 02:39:46;;;;;;;11.98;10.77;;;;;;;-148.33;100.00;56587.81;5049818;28;20025;-60
2022/04/19 02:42:12;;;;;;;10.80;9.70;;;;;;;-148.33;100.00;56587.81;5050235;28;20036;-58
2022/04/19 02:44:37;;;;;;;11.77;10.55;;;;;;;-148.33;100.00;56587.81;5050315;28;20032;-57
2022/04/19 02:47:04;;;;;;;11.70;10.60;;;;;;;-148.33;100.00;56587.81;5050087;28;20033;-59
2022/04/19 02:49:29;;;;;;;13.07;11.25;;;;;;;-148.33;100.00;56587.81;5050149;28;20021;-58
2022/04/19 02:51:55;;;;;;;11.77;10.77;;;;;;;-148.33;100.00;56587.81;5050257;28;20036;-58
2022/04/19 02:54:20;;;;;;;12.55;10.98;;;;;;;-148.33;100.00;56587.81;5049406;28;20025;-59
2022/04/19 02:56:45;;;;;;;11.90;10.80;;;;;;;-148.33;100.00;56587.81;5050051;28;20025;-59
2022/04/19 02:59:11;;;;;;;12.40;11.17;;;;;;;-148.33;100.00;56587.81;5050104;28;20036;-58
2022/04/19 03:01:36;;;;;;;12.68;11.48;;;;;;;-148.33;100.00;56587.81;5049629;28;20029;-58
2022/04/19 03:04:02;;;;;;;12.67;11.47;;;;;;;-148.33;100.00;56587.81;5049764;28;20029;-58
2022/04/19 03:06:27;;;;;;;12.43;11.13;;;;;;;-148.33;100.00;56587.81;5050341;28;20502;-58
2022/04/19 03:08:52;;;;;;;12.73;11.55;;;;;;;-148.33;100.00;56587.81;5050262;28;20504;-57
2022/04/19 03:11:17;;;;;;;14.18;11.75;;;;;;;-148.33;100.00;56587.81;5049900;28;20044;-58
2022/04/19 03:13:43;;;;;;;12.98;11.77;;;;;;;-148.33;100.00;56587.81;5049711;28;20071;-57
2022/04/19 03:16:13;;;;;;;12.75;11.60;;;;;;;-148.33;100.00;56587.81;5049328;28;20045;-58
2022/04/19 03:18:39;;;;;;;13.38;12.00;;;;;;;-148.33;100.00;56587.81;5049351;28;20028;-57
2022/04/19 03:21:04;;;;;;;13.30;12.10;;;;;;;-148.33;100.00;56587.81;5049218;28;20500;-55
2022/04/19 03:28:58;;;;;;;13.65;12.30;;;;;;;-148.33;100.00;56587.81;5049670;28;20063;-57
2022/04/19 03:31:23;;;;;;;14.32;12.80;;;;;;;-148.33;100.00;56587.81;5049081;28;20536;-58
2022/04/19 03:33:52;;;;;;;13.82;12.52;;;;;;;-148.33;100.00;56587.81;5049641;28;20057;-57
2022/04/19 03:36:18;;;;;;;14.57;13.18;;;;;;;-148.33;100.00;56587.81;5049918;28;20031;-57
2022/04/19 03:38:43;;;;;;;14.48;13.05;;;;;;;-148.33;100.00;56587.81;5048854;28;20037;-57
2022/04/19 03:41:09;;;;;;;14.48;13.10;;;;;;;-148.33;100.00;56587.81;5048263;28;20039;-55
2022/04/19 03:43:37;;;;;;;15.30;13.90;;;;;;;-148.33;100.00;56587.81;5049089;28;20032;-58
2022/04/19 03:46:02;;;;;;;13.90;12.60;;;;;;;-148.33;100.00;56587.81;5049119;28;20032;-58
2022/04/19 03:48:28;;;;;;;15.20;13.80;;;;;;;-148.33;100.00;56587.81;5048800;28;20294;-57
2022/04/19 03:50:53;;;;;;;16.10;14.50;;;;;;;-148.33;100.00;56587.81;5048618;28;20060;-58
2022/04/19 03:53:19;;;;;;;17.33;13.97;;;;;;;-148.33;100.00;56587.81;5048761;28;20037;-59
2022/04/19 03:55:44;;;;;;;14.97;13.57;;;;;;;-148.33;100.00;56587.81;5048778;28;20025;-58
2022/04/19 03:58:09;;;;;;;14.50;13.07;;;;;;;-148.33;100.00;56587.81;5048560;28;20078;-57
2022/04/19 04:00:35;;;;;;;15.43;13.83;;;;;;;-148.33;100.00;56587.81;5048978;28;20029;-58
2022/04/19 04:03:01;;;;;;;15.80;14.30;;;;;;;-148.33;100.00;56587.81;5048145;28;20523;-58
2022/04/19 04:05:27;;;;;;;16.27;14.50;;;;;;;-148.33;100.00;56587.81;5048834;28;20059;-58
2022/04/19 04:07:56;;;;;;;15.23;13.73;;;;;;;-148.33;100.00;56587.81;5048621;28;20028;-57
2022/04/19 04:10:22;;;;;;;17.52;14.40;;;;;;;-148.33;100.00;56587.81;5049132;28;20020;-58
2022/04/19 04:12:47;;;;;;;16.53;15.00;;;;;;;-148.33;100.00;56587.81;5048274;28;20551;-57
2022/04/19 04:15:13;;;;;;;15.73;14.07;;;;;;;-148.33;100.00;56587.81;5048612;28;20070;-57
2022/04/19 04:17:38;;;;;;;15.73;14.10;;;;;;;-148.33;100.00;56587.81;5048335;28;20025;-56
2022/04/19 04:20:04;;;;;;;17.17;15.27;;;;;;;-148.33;100.00;56587.81;5049356;28;20104;-57
2022/04/19 04:22:29;;;;;;;16.83;15.13;;;;;;;-148.33;100.00;56587.81;5049231;28;20524;-56
2022/04/19 04:24:55;;;;;;;16.07;14.53;;;;;;;-148.33;100.00;56587.81;5047970;28;20103;-57
2022/04/19 04:27:20;;;;;;;16.87;15.10;;;;;;;-148.33;100.00;56587.81;5028159;28;20029;-57
2022/04/19 04:29:46;;;;;;;16.50;14.57;;;;;;;-148.33;100.00;56587.81;5026458;28;20447;-57
2022/04/19 04:32:12;;;;;;;16.13;14.57;;;;;;;-148.33;100.00;56587.81;5026125;28;20046;-56
2022/04/19 04:34:37;;;;;;;15.67;13.93;;;;;;;-148.33;100.00;56587.81;5026617;28;20029;-57
2022/04/19 04:37:03;;;;;;;15.23;13.83;;;;;;;-148.33;100.00;56587.81;5028266;28;20021;-57
2022/04/19 04:39:28;;;;;;;15.97;14.40;;;;;;;-148.33;100.00;56587.81;5028030;28;20021;-57
2022/04/19 04:41:53;;;;;;;16.70;15.00;;;;;;;-148.33;100.00;56587.81;5028352;28;20436;-59
2022/04/19 04:44:18;;;;;;;16.70;15.17;;;;;;;-148.33;100.00;56587.81;5028318;28;20500;-57
2022/04/19 04:49:37;;;;;;;16.53;14.90;;;;;;;-148.33;100.00;56587.81;5046083;28;20404;-57
2022/04/19 04:52:07;;;;;;;15.70;14.00;;;;;;;-148.33;100.00;56587.81;5047521;28;20036;-58
2022/04/19 04:54:34;;;;;;;15.70;13.93;;;;;;;-148.33;100.00;56587.81;5044321;28;20032;-57
2022/04/19 04:56:59;;;;;;;15.50;14.00;;;;;;;-148.33;100.00;56587.81;5028043;28;20021;-57
2022/04/19 04:59:24;;;;;;;16.73;15.00;;;;;;;-148.33;100.00;56587.81;5036053;28;20465;-57
2022/04/19 05:01:50;;;;;;;18.48;15.38;;;;;;;-148.33;100.00;56587.81;5046430;28;20031;-58
2022/04/19 05:04:15;;;;;;;16.20;14.80;;;;;;;-148.33;100.00;56587.81;5038927;28;20051;-57
2022/04/19 05:06:41;;;;;;;16.33;14.73;;;;;;;-148.33;100.00;56587.81;5033473;28;20207;-58
2022/04/19 05:09:06;;;;;;;16.07;14.37;;;;;;;-148.33;100.00;56587.81;5028789;28;20029;-57
2022/04/19 05:11:31;;;;;;;15.95;14.35;;;;;;;-148.33;100.00;56587.81;5026462;28;20030;-57
2022/04/19 05:13:57;;;;;;;15.10;13.80;;;;;;;-148.33;100.00;56587.81;5031287;28;20033;-56
2022/04/19 05:16:22;;;;;;;15.82;14.25;;;;;;;-148.33;100.00;56587.81;5034151;28;20178;-56
2022/04/19 05:18:48;;;;;;;14.77;13.27;;;;;;;-148.33;100.00;56587.81;5027635;28;20053;-58
2022/04/19 05:21:13;;;;;;;15.53;13.93;;;;;;;-148.33;100.00;56587.81;5032655;28;20032;-57
2022/04/19 05:23:38;;;;;;;16.20;14.60;;;;;;;-148.33;100.00;56587.81;5047980;28;20064;-57
2022/04/19 05:26:03;;;;;;;16.55;13.95;;;;;;;-148.33;100.00;56587.81;5029351;28;20088;-58
2022/04/19 05:28:29;;;;;;;15.25;12.95;;;;;;;-148.33;100.00;56587.81;5028103;28;20490;-60
2022/04/19 05:30:55;;;;;;;14.75;13.43;;;;;;;-148.33;100.00;56587.81;5025955;28;20029;-58
2022/04/19 05:33:20;;;;;;;15.15;13.75;;;;;;;-148.33;100.00;56587.81;5036101;28;20452;-58
2022/04/19 05:35:45;;;;;;;15.73;13.75;;;;;;;-148.33;100.00;56587.81;5039991;28;20477;-57
2022/04/19 05:38:11;;;;;;;15.55;14.05;;;;;;;-148.33;100.00;56587.81;5035959;28;20037;-57
2022/04/19 05:40:39;;;;;;;16.38;14.50;;;;;;;-148.33;100.00;56587.81;5028415;28;20192;-57
2022/04/19 05:43:04;;;;;;;15.35;13.85;;;;;;;-148.33;100.00;56587.81;5027793;28;20025;-57
2022/04/19 05:45:30;;;;;;;16.23;14.60;;;;;;;-148.33;100.00;56587.81;5029163;28;20036;-57
2022/04/19 05:47:55;;;;;;;15.38;13.77;;;;;;;-148.33;100.00;56587.81;5031120;28;20064;-58
2022/04/19 05:50:20;;;;;;;15.32;13.80;;;;;;;-148.33;100.00;56587.81;5031178;28;20021;-59
2022/04/19 05:52:45;;;;;;;16.13;14.45;;;;;;;-148.33;100.00;56587.81;5030753;28;20025;-58
2022/04/19 05:55:11;;;;;;;16.05;14.35;;;;;;;-148.33;100.00;56587.81;5030587;28;20028;-58
2022/04/19 05:57:36;;;;;;;15.82;14.32;;;;;;;-148.33;100.00;56587.81;5029402;28;20030;-59
2022/04/19 06:00:03;;;;;;;14.93;13.43;;;;;;;-148.33;100.00;56587.81;5028958;28;20021;-59
2022/04/19 06:05:13;;;;;;;15.68;14.07;;;;;;;-148.33;100.00;56587.81;5029776;28;20036;-57
2022/04/19 06:07:47;;;;;;;16.98;13.45;;;;;;;-148.33;100.00;56587.81;5029114;28;20489;-59
2022/04/19 06:10:14;;;;;;;15.60;13.93;;;;;;;-148.33;100.00;56587.81;5030173;28;20049;-58
2022/04/19 06:12:40;;;;;;;14.30;12.90;;;;;;;-148.33;100.00;56587.81;5030464;28;20465;-59
2022/04/19 06:15:06;;;;;;;14.68;13.18;;;;;;;-148.33;100.00;56587.81;5030718;28;20087;-59
2022/04/19 06:17:32;;;;;;;14.45;13.02;;;;;;;-148.33;100.00;56587.81;5030700;28;20384;-58
2022/04/19 06:19:59;;;;;;;13.75;12.35;;;;;;;-148.33;100.00;56587.81;5029996;28;20116;-58
2022/04/19 06:22:25;;;;;;;14.90;12.98;;;;;;;-148.33;100.00;56587.81;5030056;28;20417;-59
2022/04/19 06:24:50;;;;;;;15.68;12.52;;;;;;;-148.33;100.00;56587.81;5030972;28;20032;-59
2022/04/19 06:27:16;;;;;;;14.02;12.63;;;;;;;-148.33;100.00;56587.81;5030518;28;20402;-58
2022/04/19 06:29:41;;;;;;;13.88;12.50;;;;;;;-148.33;100.00;56587.81;5030523;28;20040;-59
2022/04/19 06:32:07;;;;;;;13.43;11.88;;;;;;;-148.33;100.00;56587.81;5029917;28;20053;-58
2022/04/19 06:34:32;;;;;;;13.10;11.63;;;;;;;-148.33;100.00;56587.81;5030683;28;20030;-59
2022/04/19 06:36:57;;;;;;;13.90;12.43;;;;;;;-148.33;100.00;56587.81;5030756;28;20021;-57
2022/04/19 06:39:23;;;;;;;14.18;12.32;;;;;;;-148.33;100.00;56587.81;5030036;28;20044;-59
2022/04/19 06:41:50;;;;;;;14.07;12.48;;;;;;;-148.33;100.00;56587.81;5030668;28;20418;-60
2022/04/19 06:44:17;;;;;;;13.68;12.27;;;;;;;-148.33;100.00;56587.81;5030639;28;20103;-60
2022/04/19 06:46:47;;;;;;;12.45;10.90;;;;;;;-148.33;100.00;56587.81;5030223;28;20116;-61
2022/04/19 06:49:13;;;;;;;12.80;11.38;;;;;;;-148.33;100.00;56587.81;5030347;28;20034;-58
2022/04/19 06:51:39;;;;;;;13.07;11.73;;;;;;;-148.33;100.00;56587.81;5029735;28;20063;-59
2022/04/19 06:54:06;;;;;;;14.38;12.23;;;;;;;-148.33;100.00;56587.81;5029976;28;20587;-60
2022/04/19 06:56:31;;;;;;;13.35;11.48;;;;;;;-148.33;100.00;56587.81;5029314;28;20531;-59
2022/04/19 06:58:56;;;;;;;12.90;11.57;;;;;;;-148.33;100.00;56587.81;5030116;28;20045;-58
2022/04/19 07:01:23;;;;;;;12.68;11.48;;;;;;;-148.33;100.00;56587.81;5030415;28;20477;-59
2022/04/19 07:03:49;;;;;;;13.60;12.20;;;;;;;-148.33;100.00;56587.81;5029589;28;20032;-59
2022/04/19 07:06:14;;;;;;;13.18;11.73;;;;;;;-148.33;100.00;56587.81;5030254;28;20029;-59
2022/04/19 07:08:40;;;;;;;14.63;12.80;;;;;;;-148.33;100.00;56587.81;5030057;28;20112;-60
2022/04/19 07:11:05;;;;;;;13.27;11.75;;;;;;;-148.33;100.00;56587.81;5029967;28;20262;-59
2022/04/19 07:13:30;;;;;;;15.13;12.20;;;;;;;-148.33;100.00;56587.81;5029699;28;20454;-59
2022/04/19 07:15:56;;;;;;;14.27;12.82;;;;;;;-148.33;100.00;56587.81;5030006;28;20064;-60
2022/04/19 07:18:24;;;;;;;13.57;11.43;;;;;;;-148.33;100.00;56587.81;5029402;28;20104;-59
2022/04/19 07:26:38;;;;;;;13.35;11.85;;;;;;;-148.33;100.00;56587.81;5029544;28;20069;-59
2022/04/19 07:29:10;;;;;;;12.85;10.70;;;;;;;-148.33;100.00;56587.81;5029148;28;20029;-59
2022/04/19 07:31:37;;;;;;;13.18;11.77;;;;;;;-148.33;100.00;56587.81;5029185;28;20033;-59
2022/04/19 07:34:03;;;;;;;12.38;11.15;;;;;;;-148.33;100.00;56587.81;5029181;28;20121;-59
2022/04/19 07:36:28;;;;;;;13.27;11.75;;;;;;;-148.33;100.00;56587.81;5029673;28;20112;-58
2022/04/19 07:38:54;;;;;;;13.25;11.85;;;;;;;-148.33;100.00;56587.81;5029577;28;20536;-58
2022/04/19 07:41:20;;;;;;;14.27;11.75;;;;;;;-148.33;100.00;56587.81;5029258;28;20032;-58
2022/04/19 07:43:47;;;;;;;15.23;11.57;;;;;;;-148.33;100.00;56587.81;5028991;28;20036;-58
2022/04/19 07:46:15;;;;;;;14.75;11.27;;;;;;;-148.33;100.00;56587.81;5029565;28;20048;-60
2022/04/19 07:48:41;;;;;;;12.20;11.00;;;;;;;-148.33;100.00;56587.81;5028234;28;20029;-59
2022/04/19 07:51:07;;;;;;;11.95;10.68;;;;;;;-148.33;100.00;56587.81;5029256;28;20506;-57
2022/04/19 07:53:32;;;;;;;14.57;11.27;;;;;;;-148.33;100.00;56587.81;5029137;28;20021;-59
2022/04/19 07:55:57;;;;;;;12.90;11.18;;;;;;;-148.33;100.00;56587.81;5028571;28;20082;-59
2022/04/19 07:58:24;;;;;;;12.07;10.88;;;;;;;-148.33;100.00;56587.81;5028873;28;20416;-59
2022/04/19 08:00:49;;;;;;;12.75;10.77;;;;;;;-148.33;100.00;56587.81;5028676;28;20465;-58
2022/04/19 08:03:14;;;;;;;12.88;11.50;;;;;;;-148.33;100.00;56587.81;5029108;28;20032;-58
2022/04/19 08:05:40;;;;;;;13.95;11.18;;;;;;;-148.33;100.00;56587.81;5028730;28;20040;-58
2022/04/19 08:08:06;;;;;;;12.40;10.98;;;;;;;-148.33;100.00;56587.81;5028832;28;20029;-58
2022/04/19 08:10:31;;;;;;;13.98;10.68;;;;;;;-148.33;100.00;56587.81;5029018;28;20092;-59
2022/04/19 08:12:56;;;;;;;12.35;10.02;;;;;;;-148.33;100.00;56587.81;5027524;28;20041;-60
2022/04/19 08:15:23;;;;;;;13.95;10.02;;;;;;;-148.33;100.00;56587.81;5028374;28;20517;-59
2022/04/19 08:17:48;;;;;;;15.32;9.98;;;;;;;-148.33;100.00;56587.81;5027197;28;20025;-59
2022/04/19 08:20:14;;;;;;;10.82;9.48;;;;;;;-148.33;100.00;56587.81;5028218;28;20021;-59
2022/04/19 08:22:41;;;;;;;11.48;9.45;;;;;;;-148.33;100.00;56587.81;5028546;28;20026;-59
2022/04/19 08:25:06;;;;;;;11.02;9.88;;;;;;;-148.33;100.00;56587.81;5028585;28;20032;-59
2022/04/19 08:27:32;;;;;;;13.35;10.00;;;;;;;-148.33;100.00;56587.81;5028263;28;20022;-59
2022/04/19 08:29:57;;;;;;;11.05;9.43;;;;;;;-148.33;100.00;56587.81;5026792;28;20056;-59
2022/04/19 08:32:23;;;;;;;10.82;8.95;;;;;;;-148.33;100.00;56587.81;5028308;28;20079;-57
2022/04/19 08:34:48;;;;;;;9.63;8.63;;;;;;;-148.33;100.00;56587.81;5028296;28;20120;-60
2022/04/19 08:37:13;;;;;;;9.40;8.23;;;;;;;-148.33;100.00;56587.81;5028583;28;20539;-59
2022/04/19 08:39:38;;;;;;;12.55;9.73;;;;;;;-148.33;100.00;56587.81;5027620;28;20039;-57
2022/04/19 08:42:05;;;;;;;10.90;8.75;;;;;;;-148.33;100.00;56587.81;5028217;28;20455;-57
2022/04/19 08:44:34;;;;;;;17.52;8.77;;;;;;;-148.33;100.00;56587.81;5028435;28;20104;-60
2022/04/19 08:46:59;;;;;;;8.93;7.57;;;;;;;-148.33;100.00;56587.81;5028094;28;20091;-59
2022/04/19 08:49:25;;;;;;;8.88;7.38;;;;;;;-148.33;100.00;56587.81;5027559;28;20025;-59
2022/04/19 08:51:50;;;;;;;7.18;6.47;;;;;;;-148.33;100.00;56587.81;5028514;28;20072;-59
2022/04/19 08:59:44;;;;;;;7.15;6.45;;;;;;;-148.33;100.00;56587.81;5028161;28;20045;-60
2022/04/19 09:02:21;;;;;;;7.25;6.13;;;;;;;-148.33;100.00;56587.81;5028152;28;20580;-58
2022/04/19 09:04:46;;;;;;;10.10;7.10;;;;;;;-148.33;100.00;56587.81;5028387;28;20428;-60
2022/04/19 09:07:12;;;;;;;8.02;7.20;;;;;;;-148.33;100.00;56587.81;5028207;28;20030;-59
2022/04/19 09:09:38;;;;;;;9.30;6.72;;;;;;;-148.33;100.00;56587.81;5027565;28;20036;-59
2022/04/19 09:12:12;;;;;;;12.05;6.25;;;;;;;-148.33;100.00;56587.81;5028089;28;20473;-60
2022/04/19 09:15:03;;;;;;;7.05;5.75;;;;;;;-148.33;100.00;56587.81;5027881;28;20033;-59
2022/04/19 09:17:42;;;;;;;5.78;5.18;;;;;;;-148.33;100.00;56587.81;5027527;28;20029;-60
2022/04/19 09:20:13;;;;;;;6.38;5.65;;;;;;;-148.33;100.00;56587.81;5029340;28;20535;-60
2022/04/19 09:22:39;;;;;;;6.50;5.80;;;;;;;-148.33;100.00;56587.81;5031875;28;20125;-59
2022/04/19 09:25:16;;;;;;;9.02;5.90;;;;;;;-148.33;100.00;56587.81;5032078;28;20025;-60
2022/04/19 09:27:43;;;;;;;6.00;4.95;;;;;;;-148.33;100.00;56587.81;5031207;28;20030;-59
2022/04/19 09:30:32;;;;;;;6.43;5.57;;;;;;;-148.33;100.00;56587.81;5031881;28;20354;-60
2022/04/19 09:33:09;;;;;;;5.97;4.85;;;;;;;-148.33;100.00;56587.81;5031107;28;20075;-60
2022/04/19 09:35:47;;;;;;;8.32;5.00;;;;;;;-148.33;100.00;56587.81;5031630;28;20030;-60
2022/04/19 09:38:13;;;;;;;6.10;4.75;;;;;;;-148.33;100.00;56587.81;5031570;28;20082;-60
2022/04/19 09:40:44;;;;;;;5.40;4.70;;;;;;;-148.33;100.00;56587.81;5031537;28;20508;-60
2022/04/19 09:43:11;;;;;;;8.00;5.47;;;;;;;-148.33;100.00;56587.81;5031573;28;20033;-60
2022/04/19 09:45:54;;;;;;;8.10;5.28;;;;;;;-148.33;100.00;56587.81;5031661;28;20418;-59
2022/04/19 09:48:35;;;;;;;5.68;4.25;;;;;;;-148.33;100.00;56587.81;5031138;28;20057;-61
2022/04/19 09:51:05;;;;;;;7.15;5.00;;;;;;;-148.33;100.00;56587.81;5031149;28;20021;-59
2022/04/19 09:53:42;;;;;;;7.68;5.38;;;;;;;-148.33;100.00;56587.81;5031125;28;20025;-58
2022/04/19 09:56:09;;;;;;;6.72;4.90;;;;;;;-148.33;100.00;56587.81;5031397;28;20037;-60
2022/04/19 09:58:37;;;;;;;8.48;5.43;;;;;;;-148.33;100.00;56587.81;5031271;28;20025;-61
2022/04/19 10:01:04;;;;;;;5.85;5.25;;;;;;;-148.33;100.00;56587.81;5031068;28;20099;-59
2022/04/19 10:09:00;;;;;;;7.45;5.18;;;;;;;-148.33;100.00;56587.81;5031522;28;20102;-60
2022/04/19 10:11:26;;;;;;;5.38;4.40;;;;;;;-148.33;100.00;56587.81;5031536;28;20026;-60
2022/04/19 10:13:53;;;;;;;6.65;5.05;;;;;;;-148.33;100.00;56587.81;5030835;28;20021;-60
2022/04/19 10:16:18;;;;;;;6.30;5.25;;;;;;;-148.33;100.00;56587.81;5030997;28;20048;-60
2022/04/19 10:18:47;;;;;;;8.07;5.50;;;;;;;-148.33;100.00;56587.81;5030734;28;20466;-60
2022/04/19 10:21:16;;;;;;;5.75;5.03;;;;;;;-148.33;100.00;56587.81;5030679;28;20052;-60
2022/04/19 10:23:43;;;;;;;9.25;5.90;;;;;;;-148.33;100.00;56587.81;5030430;28;20021;-61
2022/04/19 10:26:17;;;;;;;6.68;5.80;;;;;;;-148.33;100.00;56587.81;5030878;28;20021;-60
2022/04/19 10:28:45;;;;;;;7.53;6.07;;;;;;;-148.33;100.00;56587.81;5031160;28;20497;-60
2022/04/19 10:31:10;;;;;;;6.78;5.53;;;;;;;-148.33;100.00;56587.81;5029467;28;20379;-58
2022/04/19 10:33:49;;;;;;;7.05;5.78;;;;;;;-148.33;100.00;56587.81;5030142;28;20128;-60
2022/04/19 10:36:39;;;;;;;6.88;5.75;;;;;;;-148.33;100.00;56587.81;5030463;28;20112;-59
2022/04/19 10:39:08;;;;;;;8.93;6.18;;;;;;;-148.33;100.00;56587.81;5030631;28;20033;-61
2022/04/19 10:41:56;;;;;;;6.28;4.45;;;;;;;-148.33;100.00;56587.81;5030348;28;20268;-61
2022/04/19 10:44:23;;;;;;;9.55;5.85;;;;;;;-148.33;100.00;56587.81;5030589;28;20076;-60
2022/04/19 10:47:12;;;;;;;5.57;4.40;;;;;;;-148.33;100.00;56587.81;5030600;28;20339;-60
2022/04/19 10:49:46;;;;;;;4.20;3.80;;;;;;;-148.33;100.00;56587.81;5030722;28;20041;-59
2022/04/19 10:52:39;;;;;;;6.13;4.45;;;;;;;-148.33;100.00;56587.81;5030272;28;20028;-61
2022/04/19 10:55:21;;;;;;;5.38;4.65;;;;;;;-148.33;100.00;56587.81;5030186;28;20036;-60
2022/04/19 11:00:42;;;;;;;6.25;5.65;;;;;;;-148.33;100.00;56587.81;5029928;28;20068;-60
2022/04/19 11:03:10;;;;;;;6.65;4.95;;;;;;;-148.33;100.00;56587.81;5029978;28;20033;-61
2022/04/19 11:05:43;;;;;;;6.78;5.80;;;;;;;-148.33;100.00;56587.81;5030319;28;20037;-60
2022/04/19 11:08:26;;;;;;;6.32;4.97;;;;;;;-148.33;100.00;56587.81;5030031;28;20060;-60
2022/04/19 11:10:51;;;;;;;8.20;6.38;;;;;;;-148.33;100.00;56587.81;5029305;28;20091;-60
2022/04/19 11:13:19;;;;;;;6.53;5.80;;;;;;;-148.33;100.00;56587.81;5030573;28;20433;-60
2022/04/19 11:15:55;;;;;;;9.32;5.68;;;;;;;-148.33;100.00;56587.81;5030018;28;20034;-60
2022/04/19 11:18:29;;;;;;;6.63;5.35;;;;;;;-148.33;100.00;56587.81;5030428;28;20033;-61
2022/04/19 11:21:00;;;;;;;7.80;5.60;;;;;;;-148.33;100.00;56587.81;5029424;28;20032;-60
2022/04/19 11:23:28;;;;;;;8.68;5.95;;;;;;;-148.33;100.00;56587.81;5029679;28;20096;-61
2022/04/19 11:25:54;;;;;;;8.48;5.70;;;;;;;-148.33;100.00;56587.81;5029718;28;20033;-61
2022/04/19 11:28:22;;;;;;;9.23;6.70;;;;;;;-148.33;100.00;56587.81;5029741;28;20104;-61
2022/04/19 11:30:50;;;;;;;9.35;5.90;;;;;;;-148.33;100.00;56587.81;5029240;28;20079;-61
2022/04/19 11:33:22;;;;;;;7.72;5.82;;;;;;;-148.33;100.00;56587.81;5029736;28;20045;-59